METAR Data
IDs: Format: Raw Decoded Include TAF

Data at: 0237 UTC 25 Jan 2020

PFNO 250156Z AUTO 33003KT 8SM CLR M24/M27 A3020 RMK AO2 SLP318 T12441272 FZRANO
PFNO 250056Z AUTO 00000KT 8SM CLR M25/M27 A3020 RMK AO2 SLP317 T12501272 FZRANO
PFNO 242356Z AUTO 00000KT 8SM CLR M27/M30 A3020 RMK AO2 SLP317 T12671300 11244 21289 58002 FZRANO
PFNO 242256Z AUTO 00000KT 8SM CLR M24/M27 A3020 RMK AO2 SLP318 T12441272 FZRANO
PFNO 242156Z AUTO 00000KT 8SM CLR M27/M29 A3020 RMK AO2 SLP319 T12671294 FZRANO
PFNO 242056Z AUTO 00000KT 8SM CLR M27/M29 A3020 RMK AO2 SLP318 T12671294 50001 FZRANO
PFNO 241956Z AUTO 00000KT 8SM CLR M28/M31 A3020 RMK AO2 SLP318 T12831311 FZRANO
PFNO 241856Z AUTO 23004KT 9SM CLR M29/M32 A3020 RMK AO2 SLP320 T12891317 FZRANO
PFNO 241756Z AUTO 20003KT 9SM CLR M28/M31 A3020 RMK AO2 SLP317 T12831311 11267 21289 56002 FZRANO
PFNO 241656Z AUTO 00000KT 9SM CLR M28/M31 A3020 RMK AO2 SLP317 T12831306 FZRANO
PFNO 241556Z AUTO 00000KT 9SM CLR M28/M30 A3020 RMK AO2 SLP317 T12781300 FZRANO
PFNO 241456Z AUTO 21003KT 9SM CLR M29/M31 A3020 RMK AO2 SLP319 T12891311 55000 FZRANO
PFNO 241356Z AUTO 00000KT 9SM CLR M28/M31 A3020 RMK AO2 SLP319 T12831311 FZRANO
PFNO 241256Z AUTO 00000KT 9SM CLR M28/M31 A3020 RMK AO2 SLP317 T12781306 FZRANO
PFNO 241156Z AUTO 28003KT 9SM CLR M28/M31 A3020 RMK AO2 SLP318 T12831311 11250 21283 51008 FZRANO
PFNO 241056Z AUTO 00000KT 8SM CLR M28/M31 A3020 RMK AO2 SLP315 T12781306 FZRANO
PFNO 240956Z AUTO 00000KT 8SM CLR M27/M30 A3019 RMK AO2 SLP313 T12721300 FZRANO
PFNO 240856Z AUTO 00000KT 8SM CLR M27/M30 A3018 RMK AO2 SLP309 T12721300 411671272 53010 FZRANO
PFNO 240756Z AUTO 32004KT 8SM CLR M26/M28 A3017 RMK AO2 SLP305 T12611283 FZRANO
PFNO 240656Z AUTO 29006KT 8SM CLR M26/M28 A3015 RMK AO2 SLP300 T12561283 FZRANO
PFNO 240556Z AUTO 31004KT 8SM CLR M25/M27 A3015 RMK AO2 SLP298 T12501272 11189 21256 51012 FZRANO
PFNO 240456Z AUTO 30006KT 8SM CLR M24/M27 A3014 RMK AO2 SLP295 T12441267 FZRANO
PFNO 240356Z AUTO 00000KT 8SM CLR M24/M27 A3012 RMK AO2 SLP290 T12391267 FZRANO
PFNO 240256Z AUTO 29011KT 8SM CLR M23/M26 A3011 RMK AO2 SLP286 T12281256 52010 FZRANO
PFNO 240156Z AUTO 28012KT 7SM BKN070 M21/M24 A3010 RMK AO2 SLP282 T12111239 FZRANO
PFNO 240056Z AUTO 29013KT 7SM OVC070 M19/M22 A3009 RMK AO2 SLP279 T11941222 FZRANO
PFNO 232356Z AUTO 28010KT 7SM OVC070 M19/M22 A3008 RMK AO2 SNB07E45 SLP275 P0000 60000 T11891217 11178 21189 52010 FZRANO
PFNO 232256Z AUTO 29010KT 7SM OVC070 M18/M21 A3007 RMK AO2 SLP271 T11831211 FZRANO
PFNO 232156Z AUTO 29010KT 8SM OVC075 M18/M21 A3006 RMK AO2 SLP269 T11831211 FZRANO
PFNO 232056Z AUTO 29009KT 8SM OVC075 M18/M21 A3005 RMK AO2 SLP264 60000 T11831211 53011 FZRANO
PFNO 231956Z AUTO 27008KT 8SM OVC075 M18/M20 A3004 RMK AO2 SNE36 SLP261 P0000 T11781200 FZRANO
PFNO 231856Z AUTO 27006KT 8SM -SN OVC080 M18/M19 A3002 RMK AO2 SLP255 P0000 T11781194 FZRANO
PFNO 231756Z AUTO 27007KT 7SM -SN OVC075 M18/M19 A3002 RMK AO2 SLP253 P0000 60000 T11781194 11172 21178 51010 FZRANO
PFNO 231656Z AUTO 26006KT 8SM -SN OVC080 M18/M19 A3001 RMK AO2 SLP249 P0000 T11781194 FZRANO
PFNO 231556Z AUTO 27005KT 7SM -SN SCT020 OVC080 M17/M19 A3000 RMK AO2 SLP247 P0000 T11721194 FZRANO
PFNO 231527Z AUTO 26005KT 8SM -SN SCT018 OVC080 M17/M19 A2999 RMK AO2 P0000 FZRANO
PFNO 231456Z AUTO 25004KT 8SM -SN OVC018 M17/M19 A2999 RMK AO2 SLP242 P0000 60000 T11721194 51012 FZRANO